Weather at RBC Airport

Public forecast

Using degrees Fahrenheit for public forecast. Weather courtesy of forecast.io.

Closest aviation weather report (METAR) to RBC Airport

Closest report is Jonesboro Municipal Airport, 7.9 nm (14.6 km) ENE.

2022/12/10 00:53 (retrieved 41 minutes ago)

KJBR 100053Z AUTO 00000KT 10SM CLR 11/09 A3015 RMK AO2 SLP208 T01060094

Closest aviation forecast (TAF) to RBC Airport

Closest forecast is Little Rock Air Force Base, 84.5 nm (156.5 km) SW.

2022/12/09 20:28 Ammendment (retrieved 5 hours ago)

TAF AMD KLRF 092023Z 0920/1021 33005KT 9999 FEW020 SCT220 QNH3008INS BECMG 1009/1010 10006KT 9999 SCT020 BKN070 QNH3011INS BECMG 1013/1014 06006KT 9999 VCSH BKN006 OVC030 QNH3011INS BECMG 1014/1015 06006KT 9000 -SHRA OVC006 QNH3012INS TX19/0921Z TN10/1011Z